sensor_id;sensor_type;location;lat;lon;timestamp;temperature;humidity
66835;HTU21D;53743;51.100;5.874;2022-07-01T05:05:16;20.29;69.29
66835;HTU21D;53743;51.100;5.874;2022-07-01T05:05:31;20.30;68.94
66835;HTU21D;53743;51.100;5.874;2022-07-01T05:05:46;20.31;68.62
66835;HTU21D;53743;51.100;5.874;2022-07-01T05:06:02;20.31;68.41
66835;HTU21D;53743;51.100;5.874;2022-07-01T05:06:18;20.29;68.33
66835;HTU21D;53743;51.100;5.874;2022-07-01T05:06:33;20.30;68.26
66835;HTU21D;53743;51.100;5.874;2022-07-01T05:06:49;20.30;68.21
66835;HTU21D;53743;51.100;5.874;2022-07-01T05:07:04;20.30;68.17
66835;HTU21D;53743;51.100;5.874;2022-07-01T05:07:20;20.30;68.29
66835;HTU21D;53743;51.100;5.874;2022-07-01T05:08:10;20.35;72.44
66835;HTU21D;53743;51.100;5.874;2022-07-01T05:08:25;20.36;71.48
66835;HTU21D;53743;51.100;5.874;2022-07-01T05:08:41;20.41;70.81
66835;HTU21D;53743;51.100;5.874;2022-07-01T05:13:00;20.29;70.65
66835;HTU21D;53743;51.100;5.874;2022-07-01T05:13:16;0.00;0.00
66835;HTU21D;53743;51.100;5.874;2022-07-01T05:13:31;0.00;0.00
66835;HTU21D;53743;51.100;5.874;2022-07-01T12:50:12;25.54;57.87
66835;HTU21D;53743;51.100;5.874;2022-07-01T12:50:31;25.51;57.37
66835;HTU21D;53743;51.100;5.874;2022-07-01T12:50:46;25.51;57.10
66835;HTU21D;53743;51.100;5.874;2022-07-01T12:51:02;25.51;57.02
66835;HTU21D;53743;51.100;5.874;2022-07-01T12:51:18;25.50;56.94
66835;HTU21D;53743;51.100;5.874;2022-07-01T12:51:34;25.49;56.91
66835;HTU21D;53743;51.100;5.874;2022-07-01T12:51:49;25.49;56.87
66835;HTU21D;53743;51.100;5.874;2022-07-01T12:52:05;25.48;56.86
66835;HTU21D;53743;51.100;5.874;2022-07-01T12:52:37;25.45;56.75
66835;HTU21D;53743;51.100;5.874;2022-07-01T12:53:03;25.45;56.74
66835;HTU21D;53743;51.100;5.874;2022-07-01T12:53:20;25.43;56.69
66835;HTU21D;53743;51.100;5.874;2022-07-01T12:53:35;25.43;56.68
66835;HTU21D;53743;51.100;5.874;2022-07-01T12:53:51;25.40;56.71
66835;HTU21D;53743;51.100;5.874;2022-07-01T12:54:06;25.37;56.78
66835;HTU21D;53743;51.100;5.874;2022-07-01T12:54:29;25.38;56.81
66835;HTU21D;53743;51.100;5.874;2022-07-01T12:54:45;25.35;56.87
66835;HTU21D;53743;51.100;5.874;2022-07-01T12:55:00;25.33;56.90
66835;HTU21D;53743;51.100;5.874;2022-07-01T12:55:16;25.33;56.94
66835;HTU21D;53743;51.100;5.874;2022-07-01T12:55:39;25.32;56.97
66835;HTU21D;53743;51.100;5.874;2022-07-01T12:55:55;25.31;57.01
66835;HTU21D;53743;51.100;5.874;2022-07-01T12:56:29;25.30;57.04
66835;HTU21D;53743;51.100;5.874;2022-07-01T12:56:45;25.25;55.55
66835;HTU21D;53743;51.100;5.874;2022-07-01T12:57:00;25.24;55.05
66835;HTU21D;53743;51.100;5.874;2022-07-01T12:57:16;25.22;53.86
66835;HTU21D;53743;51.100;5.874;2022-07-01T12:57:31;25.22;53.72
66835;HTU21D;53743;51.100;5.874;2022-07-01T12:57:51;25.20;54.56
66835;HTU21D;53743;51.100;5.874;2022-07-01T12:58:08;25.20;55.69
66835;HTU21D;53743;51.100;5.874;2022-07-01T12:58:25;25.17;56.13
66835;HTU21D;53743;51.100;5.874;2022-07-01T12:58:41;25.16;56.19
66835;HTU21D;53743;51.100;5.874;2022-07-01T12:58:56;25.15;55.93
66835;HTU21D;53743;51.100;5.874;2022-07-01T12:59:12;25.13;56.11
66835;HTU21D;53743;51.100;5.874;2022-07-01T12:59:27;25.13;56.22
66835;HTU21D;53743;51.100;5.874;2022-07-01T12:59:43;25.12;56.96
66835;HTU21D;53743;51.100;5.874;2022-07-01T12:59:58;25.10;57.93
66835;HTU21D;53743;51.100;5.874;2022-07-01T13:00:15;25.10;58.19
66835;HTU21D;53743;51.100;5.874;2022-07-01T13:00:31;25.10;58.30
66835;HTU21D;53743;51.100;5.874;2022-07-01T15:43:17;25.64;57.90
66835;HTU21D;53743;51.100;5.874;2022-07-01T15:43:33;25.71;57.11
66835;HTU21D;53743;51.100;5.874;2022-07-01T15:43:49;25.75;57.06
66835;HTU21D;53743;51.100;5.874;2022-07-01T15:44:05;25.79;56.16
66835;HTU21D;53743;51.100;5.874;2022-07-01T15:44:20;25.83;56.69
66835;HTU21D;53743;51.100;5.874;2022-07-01T15:44:36;25.86;56.26
66835;HTU21D;53743;51.100;5.874;2022-07-01T15:44:54;25.88;55.68
66835;HTU21D;53743;51.100;5.874;2022-07-01T15:45:10;25.92;55.34
66835;HTU21D;53743;51.100;5.874;2022-07-01T15:45:26;25.91;55.33
66835;HTU21D;53743;51.100;5.874;2022-07-01T15:45:42;25.92;55.23
66835;HTU21D;53743;51.100;5.874;2022-07-01T15:45:57;25.93;55.07
66835;HTU21D;53743;51.100;5.874;2022-07-01T15:46:13;25.94;55.03
66835;HTU21D;53743;51.100;5.874;2022-07-01T15:46:28;25.94;55.05
66835;HTU21D;53743;51.100;5.874;2022-07-01T15:46:44;25.96;55.55
66835;HTU21D;53743;51.100;5.874;2022-07-01T15:46:59;25.97;55.82
66835;HTU21D;53743;51.100;5.874;2022-07-01T15:47:37;25.96;56.12
